createdAt,value
2023-01-07T00:01:11.480Z,101194.81
2023-01-07T00:03:38.597Z,101193.73
2023-01-07T00:06:07.160Z,101193.20
2023-01-07T00:08:35.531Z,101196.00
2023-01-07T00:11:03.256Z,101194.30
2023-01-07T00:13:30.111Z,101200.95
2023-01-07T00:16:00.699Z,101199.48
2023-01-07T00:18:27.619Z,101200.41
2023-01-07T00:21:01.532Z,101202.69
2023-01-07T00:23:28.964Z,101208.75
2023-01-07T00:26:07.093Z,101211.27
2023-01-07T00:28:34.481Z,101217.96
2023-01-07T00:31:01.993Z,101215.73
2023-01-07T00:33:28.783Z,101219.70
2023-01-07T00:36:02.449Z,101225.33
2023-01-07T00:38:29.186Z,101226.88
2023-01-07T00:40:55.933Z,101229.45
2023-01-07T00:43:22.565Z,101233.63
2023-01-07T00:45:49.407Z,101227.42
2023-01-07T00:48:17.585Z,101227.94
2023-01-07T00:50:44.682Z,101232.98
2023-01-07T00:53:11.622Z,101241.15
2023-01-07T00:55:38.504Z,101245.33
2023-01-07T00:58:05.394Z,101243.80
2023-01-07T01:00:32.262Z,101242.95
2023-01-07T01:02:59.566Z,101252.67
2023-01-07T01:05:26.585Z,101249.75
2023-01-07T01:07:53.244Z,101248.70
2023-01-07T01:10:20.176Z,101242.64
2023-01-07T01:12:49.343Z,101241.80
2023-01-07T01:15:16.660Z,101238.68
2023-01-07T01:17:43.382Z,101240.42
2023-01-07T01:20:12.921Z,101242.89
2023-01-07T01:22:39.682Z,101242.42
2023-01-07T01:25:07.068Z,101245.06
2023-01-07T01:27:33.741Z,101245.42
2023-01-07T01:30:00.459Z,101250.60
2023-01-07T01:32:27.558Z,101249.78
2023-01-07T01:34:54.473Z,101251.05
2023-01-07T01:37:21.539Z,101252.30
2023-01-07T01:39:48.432Z,101247.61
2023-01-07T01:42:16.418Z,101251.20
2023-01-07T01:44:49.288Z,101247.52
2023-01-07T01:47:46.542Z,101245.38
2023-01-07T01:50:23.876Z,101248.10
2023-01-07T01:52:58.744Z,101243.54
2023-01-07T01:55:36.866Z,101240.36
2023-01-07T01:58:09.892Z,101232.58
2023-01-07T02:00:36.684Z,101232.77
2023-01-07T02:03:04.830Z,101228.61
2023-01-07T02:05:32.960Z,101232.39
2023-01-07T02:07:59.870Z,101226.29
2023-01-07T02:10:28.675Z,101226.95
2023-01-07T02:13:25.623Z,101231.98
2023-01-07T02:15:55.416Z,101232.77
2023-01-07T02:18:25.048Z,101234.36
2023-01-07T02:21:07.109Z,101229.23
2023-01-07T02:23:53.032Z,101235.67
2023-01-07T02:27:08.268Z,101238.65
2023-01-07T02:29:54.550Z,101245.80
2023-01-07T02:32:31.865Z,101246.53
2023-01-07T02:35:39.343Z,101247.10
2023-01-07T02:38:27.790Z,101243.54
2023-01-07T02:41:12.270Z,101245.61
2023-01-07T02:43:57.366Z,101244.59
2023-01-07T02:46:30.430Z,101253.23
2023-01-07T02:49:00.997Z,101251.33
2023-01-07T02:51:46.143Z,101254.10
2023-01-07T02:54:17.389Z,101255.16
2023-01-07T02:56:54.577Z,101255.00
2023-01-07T02:59:43.000Z,101258.83
2023-01-07T03:02:35.144Z,101260.73
2023-01-07T03:05:28.062Z,101260.20
2023-01-07T03:08:15.717Z,101264.33
2023-01-07T03:10:48.480Z,101262.73
2023-01-07T03:13:20.715Z,101263.43
2023-01-07T03:15:51.815Z,101260.82
2023-01-07T03:18:26.685Z,101260.79
2023-01-07T03:20:54.927Z,101259.59
2023-01-07T03:23:22.741Z,101259.95
2023-01-07T03:25:50.393Z,101260.65
2023-01-07T03:28:19.570Z,101263.75
2023-01-07T03:30:46.200Z,101266.00
2023-01-07T03:33:37.416Z,101266.52
2023-01-07T03:36:04.192Z,101268.23
2023-01-07T03:38:30.951Z,101265.84
2023-01-07T03:40:58.529Z,101263.23
2023-01-07T03:43:25.228Z,101268.42
2023-01-07T03:45:52.832Z,101272.90
2023-01-07T03:48:19.573Z,101274.08
2023-01-07T03:50:48.093Z,101280.11
2023-01-07T03:53:14.783Z,101277.66
2023-01-07T03:55:44.159Z,101279.69
2023-01-07T03:58:10.861Z,101276.73
2023-01-07T04:00:37.517Z,101275.30
2023-01-07T04:03:11.627Z,101274.94
2023-01-07T04:05:40.692Z,101277.95
2023-01-07T04:08:07.948Z,101274.65
2023-01-07T04:10:37.073Z,101273.62
2023-01-07T04:13:03.807Z,101278.84
2023-01-07T04:15:30.479Z,101279.15
2023-01-07T04:17:57.387Z,101273.41
2023-01-07T04:20:24.391Z,101276.67
2023-01-07T04:22:51.068Z,101275.08
2023-01-07T04:25:17.789Z,101279.20
2023-01-07T04:27:44.501Z,101276.09
2023-01-07T04:30:11.996Z,101277.31
2023-01-07T04:32:38.821Z,101277.30
2023-01-07T04:35:05.728Z,101276.09
2023-01-07T04:37:33.209Z,101276.81
2023-01-07T04:40:00.803Z,101279.65
2023-01-07T04:42:29.254Z,101287.30
2023-01-07T04:44:56.409Z,101290.08
2023-01-07T04:47:23.047Z,101288.23
2023-01-07T04:49:50.303Z,101287.72
2023-01-07T04:52:17.116Z,101292.22
2023-01-07T04:54:43.806Z,101291.89
2023-01-07T04:57:10.556Z,101287.06
2023-01-07T04:59:37.519Z,101291.57
2023-01-07T05:02:04.764Z,101291.42
2023-01-07T05:04:32.048Z,101303.73
2023-01-07T05:06:58.846Z,101309.61
2023-01-07T05:09:25.793Z,101306.84
2023-01-07T05:11:52.783Z,101306.83
2023-01-07T05:14:19.674Z,101307.66
2023-01-07T05:16:47.832Z,101305.73
2023-01-07T05:19:14.582Z,101305.19
2023-01-07T05:21:43.987Z,101309.98
2023-01-07T05:24:11.238Z,101312.70
2023-01-07T05:26:38.041Z,101317.16
2023-01-07T05:29:05.004Z,101315.25
2023-01-07T05:31:32.439Z,101318.38
2023-01-07T05:33:59.179Z,101323.58
2023-01-07T05:36:26.053Z,101325.68
2023-01-07T05:38:53.384Z,101322.08
2023-01-07T05:41:20.975Z,101321.77
2023-01-07T05:43:47.679Z,101326.64
2023-01-07T05:46:14.373Z,101329.73
2023-01-07T05:48:41.307Z,101330.40
2023-01-07T05:51:08.034Z,101333.31
2023-01-07T05:53:34.810Z,101333.48
2023-01-07T05:56:01.725Z,101333.29
2023-01-07T05:58:28.558Z,101341.02
2023-01-07T06:00:55.273Z,101345.13
2023-01-07T06:03:22.102Z,101352.22
2023-01-07T06:05:48.920Z,101360.38
2023-01-07T06:08:15.555Z,101364.21
2023-01-07T06:10:42.652Z,101361.15
2023-01-07T06:13:09.395Z,101364.51
2023-01-07T06:15:36.271Z,101365.08
2023-01-07T06:18:02.957Z,101361.48
2023-01-07T06:20:34.836Z,101362.73
2023-01-07T06:25:38.124Z,101364.83
2023-01-07T06:28:05.208Z,101367.27
2023-01-07T06:30:31.957Z,101381.27
2023-01-07T06:32:58.848Z,101383.34
2023-01-07T06:35:25.791Z,101389.55
2023-01-07T06:37:52.464Z,101395.61
2023-01-07T06:40:19.191Z,101395.08
2023-01-07T06:42:45.834Z,101398.86
2023-01-07T06:45:12.538Z,101396.41
2023-01-07T06:47:39.211Z,101391.73
2023-01-07T06:50:06.888Z,101396.23
2023-01-07T06:52:33.835Z,101399.52
2023-01-07T06:55:00.483Z,101403.15
2023-01-07T06:57:27.222Z,101402.64
2023-01-07T06:59:53.848Z,101405.23
2023-01-07T07:02:22.457Z,101409.58
2023-01-07T07:04:49.433Z,101417.20
2023-01-07T07:07:16.680Z,101418.26
2023-01-07T07:09:43.482Z,101421.02
2023-01-07T07:12:10.314Z,101428.27
2023-01-07T07:14:36.978Z,101433.27
2023-01-07T07:17:04.427Z,101434.99
2023-01-07T07:19:31.265Z,101441.05
2023-01-07T07:21:57.904Z,101439.33
2023-01-07T07:24:24.591Z,101441.92
2023-01-07T07:26:51.281Z,101449.70
2023-01-07T07:29:17.956Z,101452.45
2023-01-07T07:31:44.605Z,101461.26
2023-01-07T07:34:11.339Z,101457.43
2023-01-07T07:36:38.019Z,101458.81
2023-01-07T07:39:05.071Z,101461.05
2023-01-07T07:41:31.740Z,101459.51
2023-01-07T07:43:59.132Z,101457.06
2023-01-07T07:46:25.792Z,101460.20
2023-01-07T07:48:52.496Z,101463.68
2023-01-07T07:51:19.180Z,101464.56
2023-01-07T07:53:45.816Z,101466.84
2023-01-07T07:56:12.484Z,101466.66
2023-01-07T07:58:39.149Z,101473.41
2023-01-07T08:01:06.321Z,101471.67
2023-01-07T08:03:33.358Z,101477.05
2023-01-07T08:06:00.099Z,101482.92
2023-01-07T08:08:26.787Z,101483.46
2023-01-07T08:10:55.557Z,101485.01
2023-01-07T08:13:22.664Z,101481.72
2023-01-07T08:15:49.361Z,101483.27
2023-01-07T08:18:16.165Z,101490.70
2023-01-07T08:20:42.854Z,101486.89
2023-01-07T08:23:10.056Z,101486.89
2023-01-07T08:25:36.741Z,101485.34
2023-01-07T08:28:03.555Z,101486.89
2023-01-07T08:30:30.786Z,101490.17
2023-01-07T08:32:57.851Z,101488.61
2023-01-07T08:35:24.544Z,101484.10
2023-01-07T08:37:51.190Z,101482.19
2023-01-07T08:40:17.978Z,101489.61
2023-01-07T08:42:44.758Z,101482.34
2023-01-07T08:45:12.802Z,101477.86
2023-01-07T08:47:39.533Z,101480.45
2023-01-07T08:50:07.038Z,101484.60
2023-01-07T08:52:33.709Z,101480.64
2023-01-07T08:55:00.349Z,101479.63
2023-01-07T08:57:27.001Z,101473.91
2023-01-07T08:59:53.633Z,101477.22
2023-01-07T09:02:20.614Z,101476.19
2023-01-07T09:04:47.346Z,101472.89
2023-01-07T09:07:13.981Z,101465.46
2023-01-07T09:09:42.981Z,101460.43
2023-01-07T09:12:11.054Z,101462.16
2023-01-07T09:14:38.194Z,101453.68
2023-01-07T09:17:04.880Z,101453.66
2023-01-07T09:19:31.579Z,101455.21
2023-01-07T09:21:58.278Z,101453.28
2023-01-07T09:24:24.957Z,101455.67
2023-01-07T09:26:51.754Z,101456.17
2023-01-07T09:29:18.604Z,101461.70
2023-01-07T09:31:45.691Z,101458.56
2023-01-07T09:34:12.566Z,101458.75
2023-01-07T09:36:39.205Z,101461.35
2023-01-07T09:39:05.939Z,101460.15
2023-01-07T09:41:47.932Z,101459.29
2023-01-07T09:44:45.086Z,101457.53
2023-01-07T09:47:13.293Z,101454.92
2023-01-07T09:49:40.024Z,101449.39
2023-01-07T09:52:08.751Z,101456.28
2023-01-07T09:54:36.909Z,101462.48
2023-01-07T09:57:06.816Z,101462.48
2023-01-07T09:59:33.491Z,101459.90
2023-01-07T10:02:03.166Z,101453.10
2023-01-07T10:04:49.845Z,101455.98
2023-01-07T10:07:30.120Z,101461.26
2023-01-07T10:10:00.856Z,101466.61
2023-01-07T10:12:42.031Z,101461.79
2023-01-07T10:15:47.453Z,101461.19
2023-01-07T10:18:36.679Z,101469.04
2023-01-07T10:21:06.323Z,101474.11
2023-01-07T10:23:35.899Z,101468.77
2023-01-07T10:26:03.319Z,101467.74
2023-01-07T10:28:48.906Z,101466.03
2023-01-07T10:31:21.357Z,101479.04
2023-01-07T10:33:48.557Z,101478.73
2023-01-07T10:36:28.282Z,101471.30
2023-01-07T10:39:21.061Z,101474.10
2023-01-07T10:42:12.627Z,101478.41
2023-01-07T10:44:54.238Z,101478.05
2023-01-07T10:47:25.203Z,101471.23
2023-01-07T10:50:22.322Z,101471.70
2023-01-07T10:53:19.200Z,101477.69
2023-01-07T10:56:06.076Z,101476.63
2023-01-07T10:59:04.428Z,101479.23
2023-01-07T11:01:37.761Z,101476.13
2023-01-07T11:04:05.104Z,101469.42
2023-01-07T11:06:48.741Z,101465.46
2023-01-07T11:09:18.409Z,101468.91
2023-01-07T11:11:45.188Z,101475.86
2023-01-07T11:14:14.187Z,101475.71
2023-01-07T11:16:56.854Z,101479.88
2023-01-07T11:19:24.046Z,101475.59
2023-01-07T11:21:52.259Z,101474.23
2023-01-07T11:24:18.921Z,101473.73
2023-01-07T11:26:46.025Z,101474.40
2023-01-07T11:29:20.946Z,101469.38
2023-01-07T11:32:00.729Z,101471.95
2023-01-07T11:34:37.919Z,101470.85
2023-01-07T11:37:04.997Z,101474.94
2023-01-07T11:39:34.650Z,101475.71
2023-01-07T11:42:36.174Z,101480.84
2023-01-07T11:45:19.388Z,101476.45
2023-01-07T11:47:53.568Z,101478.86
2023-01-07T11:50:25.580Z,101474.04
2023-01-07T11:53:00.214Z,101471.98
2023-01-07T11:55:26.935Z,101479.25
2023-01-07T11:58:00.971Z,101479.79
2023-01-07T12:00:41.201Z,101482.31
2023-01-07T12:03:11.947Z,101479.10
2023-01-07T12:05:39.712Z,101477.38
2023-01-07T12:08:06.432Z,101478.60
2023-01-07T12:10:35.205Z,101475.70
2023-01-07T12:13:03.977Z,101473.81
2023-01-07T12:15:32.463Z,101477.79
2023-01-07T12:18:08.335Z,101479.34
2023-01-07T12:21:20.043Z,101476.52
2023-01-07T12:23:46.678Z,101480.26
2023-01-07T12:26:19.253Z,101475.20
2023-01-07T12:29:04.584Z,101477.19
2023-01-07T12:32:03.545Z,101483.17
2023-01-07T12:34:37.809Z,101485.71
2023-01-07T12:37:23.624Z,101481.36
2023-01-07T12:39:53.330Z,101479.11
2023-01-07T12:44:56.964Z,101481.08
2023-01-07T12:47:30.563Z,101480.59
2023-01-07T12:50:24.749Z,101483.40
2023-01-07T12:52:57.716Z,101476.93
2023-01-07T12:55:44.965Z,101473.32
2023-01-07T12:58:44.889Z,101479.07
2023-01-07T13:01:26.785Z,101483.26
2023-01-07T13:04:15.095Z,101484.16
2023-01-07T13:06:55.382Z,101486.98
2023-01-07T13:09:41.265Z,101493.57
2023-01-07T13:12:43.513Z,101504.15
2023-01-07T13:15:13.621Z,101498.60
2023-01-07T13:17:40.967Z,101498.77
2023-01-07T13:20:14.400Z,101495.99
2023-01-07T13:22:44.532Z,101495.81
2023-01-07T13:25:17.893Z,101493.56
2023-01-07T13:27:54.362Z,101488.73
2023-01-07T13:30:35.939Z,101487.52
2023-01-07T13:33:05.569Z,101488.05
2023-01-07T13:35:53.730Z,101493.42
2023-01-07T13:38:26.502Z,101497.75
2023-01-07T13:40:56.080Z,101498.77
2023-01-07T13:43:55.414Z,101501.91
2023-01-07T13:46:24.424Z,101510.21
2023-01-07T13:48:52.769Z,101518.36
2023-01-07T13:51:33.002Z,101521.31
2023-01-07T13:53:59.830Z,101528.59
2023-01-07T13:56:26.640Z,101531.70
2023-01-07T13:58:55.448Z,101536.73
2023-01-07T14:01:33.629Z,101544.16
2023-01-07T18:24:24.747Z,101612.52
2023-01-07T18:26:51.636Z,101613.82
2023-01-07T18:29:18.441Z,101620.54
2023-01-07T18:31:45.205Z,101616.90
2023-01-07T18:34:13.122Z,101617.02
2023-01-07T18:36:40.143Z,101623.36
2023-01-07T18:39:09.274Z,101630.52
2023-01-07T18:41:36.021Z,101633.21
2023-01-07T18:44:02.853Z,101632.41
2023-01-07T18:46:29.686Z,101632.66
2023-01-07T18:48:56.826Z,101637.73
2023-01-07T18:51:23.513Z,101636.56
2023-01-07T18:53:50.271Z,101638.14
2023-01-07T18:56:17.171Z,101637.46
2023-01-07T18:58:44.349Z,101638.15
2023-01-07T19:01:11.215Z,101633.83
2023-01-07T19:03:38.571Z,101630.86
2023-01-07T19:06:08.796Z,101627.58
2023-01-07T19:08:35.544Z,101626.02
2023-01-07T19:11:05.909Z,101632.72
2023-01-07T19:13:32.535Z,101627.68
2023-01-07T19:15:59.219Z,101633.22
2023-01-07T19:18:25.875Z,101635.30
2023-01-07T19:20:52.565Z,101639.63
2023-01-07T19:23:19.207Z,101646.55
2023-01-07T19:25:55.732Z,101649.15
2023-01-07T19:28:22.393Z,101653.50
2023-01-07T19:30:49.139Z,101654.90
2023-01-07T19:33:15.772Z,101656.46
2023-01-07T19:35:42.576Z,101661.35
2023-01-07T19:38:09.346Z,101668.80
2023-01-07T19:40:36.095Z,101668.11
2023-01-07T19:43:02.707Z,101661.70
2023-01-07T19:45:29.507Z,101665.86
2023-01-07T19:47:56.146Z,101666.03
2023-01-07T19:50:22.854Z,101672.44
2023-01-07T19:52:49.536Z,101669.14
2023-01-07T19:55:21.353Z,101669.48
2023-01-07T19:57:54.044Z,101673.46
2023-01-07T20:00:23.943Z,101675.55
2023-01-07T20:03:15.709Z,101669.32
2023-01-07T20:05:46.531Z,101666.72
2023-01-07T20:08:13.365Z,101663.09
2023-01-07T20:10:40.963Z,101668.46
2023-01-07T20:13:07.585Z,101676.60
2023-01-07T20:15:34.266Z,101679.71
2023-01-07T20:18:00.907Z,101669.48
2023-01-07T20:20:27.719Z,101669.13
2023-01-07T20:22:54.902Z,101669.13
2023-01-07T20:25:21.603Z,101672.94
2023-01-07T20:27:48.288Z,101677.10
2023-01-07T20:30:14.967Z,101683.15
2023-01-07T20:32:41.731Z,101684.89
2023-01-07T20:35:09.095Z,101683.86
2023-01-07T20:37:35.820Z,101682.13
2023-01-07T20:40:02.808Z,101677.63
2023-01-07T20:42:31.823Z,101674.01
2023-01-07T20:44:58.514Z,101673.13
2023-01-07T20:47:25.190Z,101671.05
2023-01-07T20:49:51.861Z,101668.79
2023-01-07T20:52:18.531Z,101671.73
2023-01-07T20:54:47.215Z,101679.02
2023-01-07T20:57:14.079Z,101682.14
2023-01-07T20:59:40.838Z,101680.75
2023-01-07T21:02:13.649Z,101682.83
2023-01-07T21:04:40.420Z,101684.92
2023-01-07T21:07:07.190Z,101685.78
2023-01-07T21:09:33.821Z,101685.27
2023-01-07T21:12:00.839Z,101685.41
2023-01-07T21:14:27.472Z,101681.09
2023-01-07T21:16:54.158Z,101680.56
2023-01-07T21:19:20.944Z,101680.73
2023-01-07T21:21:48.682Z,101685.92
2023-01-07T21:24:17.367Z,101680.90
2023-01-07T21:26:44.238Z,101679.87
2023-01-07T21:29:11.975Z,101678.84
2023-01-07T21:31:38.736Z,101678.33
2023-01-07T21:34:05.522Z,101674.52
2023-01-07T21:36:32.163Z,101675.04
2023-01-07T21:39:00.534Z,101678.15
2023-01-07T21:41:28.460Z,101681.45
2023-01-07T21:43:56.174Z,101683.18
2023-01-07T21:46:23.057Z,101676.94
2023-01-07T21:48:50.366Z,101688.02
2023-01-07T21:51:19.236Z,101686.81
2023-01-07T21:53:45.947Z,101682.32
2023-01-07T21:56:14.984Z,101679.54
2023-01-07T21:58:41.970Z,101675.73
2023-01-07T22:01:09.971Z,101667.05
2023-01-07T22:03:37.100Z,101665.16
2023-01-07T22:06:08.696Z,101669.14
2023-01-07T22:08:35.445Z,101672.79
2023-01-07T22:11:02.257Z,101671.40
2023-01-07T22:13:28.904Z,101666.38
2023-01-07T22:15:56.144Z,101666.36
2023-01-07T22:18:23.074Z,101666.02
2023-01-07T22:20:56.131Z,101662.52
2023-01-07T22:23:23.258Z,101667.02
2023-01-07T22:25:49.897Z,101663.70
2023-01-07T22:28:17.161Z,101666.13
2023-01-07T22:30:47.069Z,101663.88
2023-01-07T22:33:13.705Z,101658.67
2023-01-07T22:35:40.356Z,101661.12
2023-01-07T22:38:07.384Z,101659.41
2023-01-07T22:40:34.996Z,101655.97
2023-01-07T22:43:04.120Z,101653.39
2023-01-07T22:45:48.410Z,101654.26
2023-01-07T22:48:15.559Z,101654.26
2023-01-07T22:50:42.226Z,101650.27
2023-01-07T22:53:09.121Z,101647.69
2023-01-07T22:55:35.891Z,101650.27
2023-01-07T22:58:02.737Z,101654.25
2023-01-07T23:00:51.672Z,101658.23
2023-01-07T23:03:19.355Z,101656.50
2023-01-07T23:05:46.127Z,101653.23
2023-01-07T23:08:12.843Z,101658.25
2023-01-07T23:10:39.832Z,101654.94
2023-01-07T23:13:06.893Z,101653.91
2023-01-07T23:15:34.085Z,101646.80
2023-01-07T23:18:00.766Z,101646.80
2023-01-07T23:20:27.531Z,101644.04
2023-01-07T23:22:54.181Z,101648.00
2023-01-07T23:25:20.872Z,101647.66
2023-01-07T23:27:48.912Z,101645.77
2023-01-07T23:30:15.745Z,101646.30
2023-01-07T23:32:42.568Z,101647.16
2023-01-07T23:35:09.497Z,101649.05
2023-01-07T23:37:36.261Z,101650.27
2023-01-07T23:40:03.199Z,101655.28
2023-01-07T23:42:30.033Z,101653.71
2023-01-07T23:44:57.215Z,101651.13
2023-01-07T23:47:24.061Z,101649.40
2023-01-07T23:49:50.695Z,101648.02
2023-01-07T23:52:19.141Z,101646.63
2023-01-07T23:54:46.294Z,101646.63
2023-01-07T23:57:12.935Z,101646.11
2023-01-07T23:59:39.663Z,101645.77
